Latest Weather Observations for Omeo

IDV60801

Issued at 10:35 pm EST Wednesday 23 April 2014 (issued every 30 minutes, with the page automatically refreshed every 10 minutes)

About weather observations | Map of weather stations | Latest weather observations for VIC | Other Formats
Station Details ID: 083090 Name: OMEO Lat: -37.10 Lon: 147.60 Height: 689.8 m
Data from the previous 72 hours. | See also: Recent months at Omeo
Date/Time
EST
Temp
°C
App
Temp
°C
Dew
Point
Rel
Hum
%
Delta-T
°C
Wind Press
QNH
hPa
Press
MSL
hPa
Rain
since 9 am
mm
Dir
 
Spd
km/h
Gust
km/h
Spd
kts
Gust
kts
23/10:30pm 10.3 9.1 7.9 85 1.2 NNW 4 7 2 4 1014.3 - 0.0
23/10:00pm 11.2 9.1 8.4 83 1.4 N 9 13 5 7 1014.5 - 0.0
23/09:30pm 10.3 9.0 7.7 84 1.3 N 4 7 2 4 1014.7 - 0.0
23/09:00pm 11.3 9.2 8.3 82 1.5 N 9 11 5 6 1014.7 1014.0 0.0
23/08:30pm 10.5 8.8 7.4 81 1.5 N 6 7 3 4 1014.9 - 0.0
23/08:00pm 11.0 9.1 6.9 76 2.0 NNW 6 11 3 6 1014.9 - 0.0
23/07:30pm 11.5 10.8 8.7 83 1.4 N 2 9 1 5 1014.9 - 0.0
23/07:00pm 12.1 9.9 8.0 76 2.1 N 9 13 5 7 1014.8 - 0.0
23/06:30pm 12.9 10.4 8.0 72 2.5 N 11 15 6 8 1014.6 - 0.0
23/06:00pm 14.1 11.4 7.4 64 3.4 NNW 11 15 6 8 1014.7 1014.0 0.0
23/05:30pm 15.3 12.5 5.2 51 5.0 NW 9 13 5 7 1014.4 - 0.0
23/05:00pm 16.5 12.9 4.9 46 5.7 WNW 13 19 7 10 1014.2 - 0.0
23/04:30pm 17.1 12.5 5.7 47 5.7 NW 19 32 10 17 1014.0 - 0.0
23/04:00pm 17.7 14.2 7.4 51 5.4 NW 15 24 8 13 1013.8 - 0.0
23/03:30pm 16.8 13.0 9.0 60 4.2 NNW 19 26 10 14 1013.9 - 0.0
23/03:00pm 16.7 13.0 10.1 65 3.6 N 20 30 11 16 1013.9 1013.1 0.0
23/02:30pm 16.7 13.2 10.1 65 3.6 N 19 32 10 17 1013.9 - 0.0
23/02:00pm 17.3 13.7 9.7 61 4.1 N 19 30 10 16 1013.9 - 0.0
23/01:30pm 17.3 12.8 10.0 62 4.0 N 24 41 13 22 1014.1 - 0.0
23/01:00pm 17.7 13.6 10.1 61 4.2 N 22 35 12 19 1014.4 - 0.0
23/12:30pm 17.7 13.3 10.3 62 4.1 N 24 37 13 20 1014.7 - 0.0
23/12:00pm 16.9 12.0 9.8 63 3.9 N 26 39 14 21 1015.5 1014.8 0.0
23/11:30am 16.8 12.8 9.2 61 4.1 N 20 30 11 16 1015.9 - 0.0
23/11:00am 17.1 12.6 10.0 63 3.9 N 24 33 13 18 1016.0 - 0.0
23/10:30am 16.3 11.7 9.7 65 3.6 N 24 33 13 18 1016.2 - 0.0
23/10:00am 15.6 11.6 10.4 71 2.8 N 22 32 12 17 1016.4 - 0.0
23/09:30am 14.3 10.8 10.3 77 2.2 N 19 28 10 15 1016.8 - 0.0
23/09:00am 12.1 8.3 9.7 85 1.3 N 20 28 11 15 1016.9 1016.2 0.2
23/08:30am 10.1 7.5 9.2 94 0.5 N 13 19 7 10 1017.0 - 0.2
23/08:00am 8.6 6.6 8.5 99 0.1 N 9 13 5 7 1017.1 - 0.2
23/07:30am 7.4 5.6 7.1 98 0.1 N 6 9 3 5 1016.9 - 0.2
23/07:00am 6.9 6.1 6.5 97 0.2 CALM 0 0 0 0 1016.8 - 0.2
23/06:30am 7.7 7.1 7.3 97 0.2 CALM 0 6 0 3 1016.8 - 0.2
23/06:00am 8.3 7.8 8.0 98 0.1 SSW 0 0 0 0 1016.9 1016.2 0.2
23/05:30am 8.5 8.1 8.2 98 0.1 CALM 0 0 0 0 1016.8 - 0.2
23/05:00am 8.5 8.1 8.2 98 0.1 CALM 0 0 0 0 1016.8 - 0.2
23/04:30am 8.6 8.2 8.3 98 0.2 CALM 0 0 0 0 1017.0 - 0.2
23/04:00am 8.6 7.8 8.3 98 0.2 S 2 7 1 4 1016.9 - 0.2
23/03:30am 8.5 8.1 8.1 97 0.2 CALM 0 0 0 0 1017.0 - 0.2
23/03:00am 8.8 7.1 8.4 97 0.2 SE 7 11 4 6 1016.8 1016.1 0.2
23/02:30am 8.9 7.1 8.0 94 0.4 SE 7 9 4 5 1017.0 - 0.2
23/02:00am 10.1 8.8 9.3 95 0.4 N 6 7 3 4 1017.2 - 0.2
23/01:30am 10.2 9.3 9.4 95 0.4 NNE 4 7 2 4 1017.5 - 0.2
23/01:00am 10.2 10.0 9.1 93 0.6 CALM 0 0 0 0 1017.7 - 0.2
23/12:30am 11.0 9.7 9.8 92 0.6 N 7 9 4 5 1017.8 - 0.2
23/12:00am 11.2 9.9 9.8 91 0.7 N 7 11 4 6 1018.2 1017.5 0.2
 
Date/Time
EST
Temp
°C
App
Temp
°C
Dew
Point
Rel
Hum
%
Delta-T
°C
Wind Press
QNH
hPa
Press
MSL
hPa
Rain
since 9 am
mm
Dir
 
Spd
km/h
Gust
km/h
Spd
kts
Gust
kts
22/11:30pm 11.3 9.9 9.7 90 0.8 NNW 7 9 4 5 1018.3 - 0.2
22/11:00pm 11.7 10.5 9.4 86 1.2 NNE 6 11 3 6 1018.2 - 0.0
22/10:30pm 12.0 10.6 9.4 84 1.4 NNE 7 9 4 5 1018.3 - 0.0
22/10:00pm 12.3 10.8 9.1 81 1.7 NNE 7 11 4 6 1018.3 - 0.0
22/09:30pm 12.2 10.3 8.9 80 1.7 N 9 15 5 8 1018.4 - 0.0
22/09:00pm 12.4 10.5 8.9 79 1.8 N 9 11 5 6 1018.0 1017.4 0.0
22/08:30pm 13.1 10.4 8.8 75 2.2 N 13 20 7 11 1017.8 - 0.0
22/08:00pm 13.3 10.8 8.2 71 2.6 N 11 15 6 8 1017.7 - 0.0
22/07:30pm 13.6 11.1 8.2 70 2.8 N 11 17 6 9 1017.6 - 0.0
22/07:00pm 13.6 10.7 8.2 70 2.8 N 13 19 7 10 1017.5 - 0.0
22/06:30pm 13.6 10.7 8.2 70 2.8 N 13 17 7 9 1017.2 - 0.0
22/06:00pm 14.1 10.8 8.1 67 3.1 N 15 20 8 11 1016.6 1015.9 0.0
22/05:30pm 14.3 11.4 8.3 67 3.1 N 13 19 7 10 1016.2 - 0.0
22/05:00pm 15.1 11.6 8.6 65 3.4 N 17 22 9 12 1016.0 - 0.0
22/04:30pm 16.1 12.2 8.6 61 4.0 N 19 26 10 14 1015.8 - 0.0
22/04:00pm 16.3 12.4 8.5 60 4.1 N 19 24 10 13 1015.8 - 0.0
22/03:30pm 16.9 12.3 8.1 56 4.6 N 22 32 12 17 1015.9 - 0.0
22/03:00pm 17.3 12.6 7.6 53 5.1 N 22 33 12 18 1016.0 1015.3 0.0
22/02:30pm 18.2 13.0 7.3 49 5.7 N 24 33 13 18 1015.8 - 0.0
22/02:00pm 18.6 14.3 7.7 49 5.8 N 20 33 11 18 1016.3 - 0.0
22/01:30pm 18.1 13.3 7.2 49 5.7 N 22 35 12 19 1016.8 - 0.0
22/01:00pm 17.1 13.0 7.7 54 4.9 N 19 30 10 16 1017.0 - 0.0
22/12:30pm 16.8 12.8 8.2 57 4.5 N 19 26 10 14 1017.4 - 0.0
22/12:00pm 16.1 12.5 8.3 60 4.1 NNE 17 26 9 14 1017.6 1016.9 0.0
22/11:30am 16.0 12.6 7.7 58 4.3 N 15 24 8 13 1018.0 - 0.0
22/11:00am 16.6 12.6 8.1 57 4.5 N 19 28 10 15 1018.4 - 0.0
22/10:30am 15.9 11.8 7.9 59 4.2 N 19 28 10 15 1018.5 - 0.0
22/10:00am 13.6 9.5 7.8 68 3.0 N 19 26 10 14 1018.6 - 0.0
22/09:30am 13.1 9.6 7.3 68 2.9 N 15 24 8 13 1018.9 - 0.0
22/09:00am 13.0 8.9 7.7 70 2.7 N 19 24 10 13 1019.1 1018.5 0.0
22/08:30am 11.5 7.9 6.8 73 2.3 N 15 20 8 11 1019.1 - 0.0
22/08:00am 10.4 7.1 6.4 76 1.9 N 13 20 7 11 1019.1 - 0.0
22/07:30am 10.0 6.7 6.3 78 1.8 N 13 17 7 9 1019.0 - 0.0
22/07:00am 10.0 6.7 6.2 77 1.8 N 13 20 7 11 1018.8 - 0.0
22/06:30am 9.9 7.3 6.1 77 1.8 N 9 17 5 9 1018.6 - 0.0
22/06:00am 9.6 6.6 6.0 78 1.7 N 11 15 6 8 1018.5 1017.8 0.0
22/05:30am 9.4 6.0 5.9 79 1.7 N 13 20 7 11 1018.4 - 0.0
22/05:00am 9.2 5.8 6.1 81 1.5 N 13 17 7 9 1018.4 - 0.0
22/04:30am 9.1 5.8 6.2 82 1.4 N 13 19 7 10 1018.3 - 0.0
22/04:00am 9.3 6.0 6.2 81 1.5 N 13 17 7 9 1018.2 - 0.0
22/03:30am 8.8 5.8 6.1 83 1.3 N 11 15 6 8 1018.2 - 0.0
22/03:00am 8.9 5.5 6.0 82 1.4 N 13 19 7 10 1018.3 1017.6 0.0
22/02:30am 9.0 6.0 5.9 81 1.5 N 11 17 6 9 1018.8 - 0.0
22/02:00am 8.7 4.9 6.0 83 1.3 N 15 19 8 10 1018.9 - 0.0
22/01:30am 8.6 4.8 5.7 82 1.4 N 15 20 8 11 1019.2 - 0.0
22/01:00am 8.6 4.8 5.9 83 1.3 NNW 15 19 8 10 1019.3 - 0.0
22/12:30am 8.4 5.4 6.0 85 1.1 N 11 17 6 9 1019.5 - 0.0
22/12:00am 8.3 4.5 5.9 85 1.1 NNW 15 19 8 10 1019.7 1019.0 0.0
 
Date/Time
EST
Temp
°C
App
Temp
°C
Dew
Point
Rel
Hum
%
Delta-T
°C
Wind Press
QNH
hPa
Press
MSL
hPa
Rain
since 9 am
mm
Dir
 
Spd
km/h
Gust
km/h
Spd
kts
Gust
kts
21/11:30pm 8.3 4.5 5.9 85 1.1 NNW 15 20 8 11 1019.5 - 0.0
21/11:00pm 8.4 4.6 6.0 85 1.1 N 15 20 8 11 1019.7 - 0.0
21/10:30pm 8.6 4.5 6.1 84 1.2 N 17 20 9 11 1019.9 - 0.0
21/10:00pm 9.4 4.9 6.3 81 1.5 N 19 26 10 14 1020.0 - 0.0
21/09:30pm 10.0 5.9 6.0 76 1.9 N 17 22 9 12 1020.0 - 0.0
21/09:00pm 10.3 6.2 6.1 75 2.0 N 17 24 9 13 1020.1 1019.4 0.0
21/08:30pm 10.4 5.9 6.0 74 2.1 N 19 24 10 13 1020.2 - 0.0
21/08:00pm 10.3 6.1 5.9 74 2.1 N 17 26 9 14 1020.2 - 0.0
21/07:30pm 10.7 6.1 5.5 70 2.5 N 19 24 10 13 1020.2 - 0.0
21/07:00pm 10.8 6.5 5.3 69 2.6 N 17 24 9 13 1020.2 - 0.0
21/06:30pm 11.0 6.7 5.1 67 2.8 N 17 22 9 12 1019.9 - 0.0
21/06:00pm 11.5 7.1 4.9 64 3.1 N 17 24 9 13 1019.4 1018.8 0.0
21/05:30pm 12.1 7.3 4.8 61 3.5 N 19 24 10 13 1019.0 - 0.0
21/05:00pm 13.0 8.1 4.9 58 3.9 N 20 33 11 18 1018.7 - 0.0
21/04:30pm 13.4 8.7 5.3 58 3.9 N 19 30 10 16 1018.5 - 0.0
21/04:00pm 14.1 8.4 4.9 54 4.5 N 24 33 13 18 1018.2 - 0.0
21/03:30pm 14.5 9.3 5.6 55 4.4 N 22 32 12 17 1018.2 - 0.0
21/03:00pm 14.4 9.7 5.0 53 4.6 N 19 26 10 14 1018.4 1017.7 0.0
21/02:30pm 14.4 10.4 6.7 60 3.9 N 17 26 9 14 1018.6 - 0.0
21/02:00pm 14.1 10.4 6.2 59 3.9 N 15 20 8 11 1018.7 - 0.0
21/01:30pm 13.3 9.5 5.7 60 3.7 N 15 22 8 12 1019.0 - 0.0
21/01:00pm 12.2 8.4 5.8 65 3.1 N 15 20 8 11 1019.3 - 0.0
21/12:30pm 11.3 7.0 5.2 66 2.9 N 17 22 9 12 1019.9 - 0.0
21/12:00pm 10.4 6.5 5.4 71 2.4 N 15 20 8 11 1020.3 1019.7 0.0
21/11:30am 9.0 4.8 3.8 70 2.4 N 15 22 8 12 1020.8 - 0.0
21/11:00am 8.3 4.3 4.9 79 1.6 N 15 20 8 11 1021.3 - 0.0
21/10:30am 6.4 2.5 3.6 82 1.2 N 13 19 7 10 1021.5 - 0.0
21/10:00am 5.7 1.8 3.5 86 1.0 N 13 20 7 11 1021.9 - 0.0
21/09:30am 4.2 -0.2 2.9 91 0.6 N 15 20 8 11 1022.2 - 0.0
21/09:00am 3.9 0.2 2.6 91 0.5 N 11 19 6 10 1022.3 1021.7 0.0
21/08:30am 2.6 -1.2 1.6 93 0.4 NNW 11 15 6 8 1022.3 - 0.0
21/08:00am 0.8 -2.9 0.2 96 0.2 WNW 9 11 5 6 1022.3 - 0.0
21/07:30am -0.1 -3.5 -0.4 98 0.1 NW 7 9 4 5 1021.9 - 0.0
21/07:00am -0.9 -3.8 -1.3 97 0.1 WNW 4 9 2 5 1021.8 - 0.0
21/06:30am -1.3 -3.9 -2.0 95 0.2 NW 2 7 1 4 1021.7 - 0.0
21/06:00am -0.9 -4.4 -1.5 96 0.2 W 7 9 4 5 1021.5 1020.8 0.0
21/05:30am -0.5 -2.6 -1.1 96 0.2 CALM 0 0 0 0 1021.4 - 0.0
21/05:00am -0.7 -3.7 -1.5 94 0.3 NW 4 7 2 4 1021.0 - 0.0
21/04:30am 0.2 -3.0 -0.5 95 0.3 WNW 6 9 3 5 1020.7 - 0.0
21/04:00am 0.2 -3.0 -0.4 96 0.2 WNW 6 9 3 5 1020.6 - 0.0
21/03:30am 0.0 -3.4 -0.8 94 0.3 NNW 7 9 4 5 1020.7 - 0.0
21/03:00am 0.1 -2.3 -0.6 95 0.3 N 2 6 1 3 1020.6 1020.0 0.0
21/02:30am 0.3 -2.9 -0.3 96 0.2 W 6 9 3 5 1020.6 - 0.0
21/02:00am 0.2 -2.2 -0.6 94 0.3 WNW 2 6 1 3 1020.8 - 0.0
21/01:30am 0.7 -1.3 -0.2 94 0.3 CALM 0 9 0 5 1020.6 - 0.0
21/01:00am 1.3 -0.6 0.4 94 0.3 CALM 0 0 0 0 1020.6 - 0.0
21/12:30am 1.4 -1.3 0.2 92 0.5 W 4 7 2 4 1020.6 - 0.0
21/12:00am 1.9 0.0 0.7 92 0.5 CALM 0 0 0 0 1020.4 1019.8 0.0
 
Date/Time
EST
Temp
°C
App
Temp
°C
Dew
Point
Rel
Hum
%
Delta-T
°C
Wind Press
QNH
hPa
Press
MSL
hPa
Rain
since 9 am
mm
Dir
 
Spd
km/h
Gust
km/h
Spd
kts
Gust
kts
20/11:30pm 2.2 0.4 1.0 92 0.5 CALM 0 0 0 0 1020.4 - 0.0
20/11:00pm 3.1 1.3 1.5 89 0.6 CALM 0 0 0 0 1020.5 - 0.0

Other Formats:

Comma delimited format used in spreadsheet applications
http://www.bom.gov.au/fwo/IDV60801/IDV60801.94908.axf

JavaScript Object Notation format (JSON) in row-major order
http://www.bom.gov.au/fwo/IDV60801/IDV60801.94908.json